Time;durP1;ratioP1;P1;durP2;ratioP2;P2;SDS_P1;SDS_P2;PMS_P1;PMS_P2;Temp;Humidity;BMP_temperature;BMP_pressure;BME280_temperature;BME280_humidity;BME280_pressure;Samples;Min_cycle;Max_cycle;Signal;HPM_P1;HPM_P2
2022/07/07 00:00:49;;;;;;;0.10;0.10;;;14.20;99.90;;;;;;4979820;28;20708;-80
2022/07/07 00:03:14;;;;;;;0.10;0.10;;;14.20;99.90;;;;;;4989893;28;20216;-83
2022/07/07 00:05:40;;;;;;;0.10;0.10;;;14.20;99.90;;;;;;4987038;28;20188;-81
2022/07/07 00:08:06;;;;;;;0.10;0.10;;;14.30;99.90;;;;;;4988610;28;20193;-80
2022/07/07 00:10:31;;;;;;;0.10;0.10;;;14.20;99.90;;;;;;4976487;28;20189;-80
2022/07/07 00:12:57;;;;;;;0.10;0.10;;;14.20;99.90;;;;;;4984528;28;20502;-81
2022/07/07 00:15:22;;;;;;;0.13;0.13;;;14.20;99.90;;;;;;4981838;28;20201;-80
2022/07/07 00:17:48;;;;;;;0.20;0.20;;;14.30;99.90;;;;;;4984064;28;20270;-82
2022/07/07 00:20:14;;;;;;;0.10;0.10;;;14.30;99.90;;;;;;4986997;28;20200;-82
2022/07/07 00:22:39;;;;;;;0.10;0.10;;;14.30;99.90;;;;;;4989018;28;20233;-81
2022/07/07 00:25:06;;;;;;;0.10;0.10;;;14.40;99.90;;;;;;4987221;28;20739;-81
2022/07/07 00:27:32;;;;;;;0.10;0.10;;;14.40;99.90;;;;;;4985640;28;20181;-80
2022/07/07 00:29:58;;;;;;;0.10;0.10;;;14.40;99.90;;;;;;4986091;28;20455;-80
2022/07/07 00:32:23;;;;;;;0.10;0.10;;;14.40;99.90;;;;;;4987848;28;20599;-80
2022/07/07 00:34:49;;;;;;;0.10;0.10;;;14.50;99.90;;;;;;4987914;28;20204;-81
2022/07/07 00:37:14;;;;;;;0.10;0.10;;;14.50;99.90;;;;;;4970610;28;20191;-82
2022/07/07 00:39:40;;;;;;;0.10;0.10;;;14.60;99.90;;;;;;4977692;28;20217;-81
2022/07/07 00:42:06;;;;;;;0.10;0.10;;;14.50;99.90;;;;;;4966987;28;20208;-82
2022/07/07 00:44:31;;;;;;;0.10;0.10;;;14.60;99.90;;;;;;4987611;28;20236;-82
2022/07/07 00:46:58;;;;;;;0.10;0.10;;;14.60;99.90;;;;;;4987314;28;20201;-84
2022/07/07 00:49:24;;;;;;;0.10;0.10;;;14.60;99.90;;;;;;4977791;28;20193;-84
2022/07/07 00:51:49;;;;;;;0.20;0.20;;;14.60;99.90;;;;;;4984821;28;20444;-84
2022/07/07 00:54:15;;;;;;;0.10;0.10;;;14.70;99.90;;;;;;4972248;28;20228;-84
2022/07/07 00:56:41;;;;;;;0.10;0.10;;;14.70;99.90;;;;;;4987090;28;20650;-84
2022/07/07 00:59:08;;;;;;;0.10;0.10;;;14.70;99.90;;;;;;4970178;28;20466;-84
2022/07/07 01:01:37;;;;;;;0.10;0.10;;;14.70;99.90;;;;;;4987146;28;20177;-84
2022/07/07 01:04:04;;;;;;;0.10;0.10;;;14.70;99.90;;;;;;4987840;28;20495;-85
2022/07/07 01:06:31;;;;;;;0.10;0.10;;;14.80;99.90;;;;;;4986958;28;20499;-84
2022/07/07 01:08:57;;;;;;;0.10;0.10;;;14.80;99.90;;;;;;4986516;28;20451;-85
2022/07/07 01:11:22;;;;;;;0.10;0.10;;;14.80;99.90;;;;;;4987853;28;20451;-84
2022/07/07 01:13:48;;;;;;;0.10;0.10;;;14.80;99.90;;;;;;4986621;28;20458;-84
2022/07/07 01:16:13;;;;;;;0.10;0.10;;;14.80;99.90;;;;;;4962831;28;20566;-84
2022/07/07 01:18:39;;;;;;;0.10;0.10;;;14.90;99.90;;;;;;4986790;28;20177;-83
2022/07/07 01:21:06;;;;;;;0.10;0.10;;;14.90;99.90;;;;;;4988287;28;20751;-85
2022/07/07 01:23:32;;;;;;;0.10;0.10;;;14.90;99.90;;;;;;4989167;28;20327;-84
2022/07/07 01:25:57;;;;;;;0.10;0.10;;;14.90;99.90;;;;;;4986876;28;20551;-85
2022/07/07 01:28:23;;;;;;;0.10;0.10;;;15.00;99.90;;;;;;4983602;28;20264;-84
2022/07/07 01:30:48;;;;;;;0.10;0.10;;;15.00;99.90;;;;;;4986498;28;20835;-84
2022/07/07 01:33:16;;;;;;;0.13;0.13;;;15.00;99.90;;;;;;4983075;28;20202;-84
2022/07/07 01:35:41;;;;;;;0.10;0.10;;;15.00;99.90;;;;;;4988380;28;20216;-84
2022/07/07 01:38:07;;;;;;;0.10;0.10;;;15.10;99.90;;;;;;4988750;28;20479;-84
2022/07/07 01:40:32;;;;;;;0.10;0.10;;;15.10;99.90;;;;;;4970643;28;20185;-84
2022/07/07 01:42:58;;;;;;;0.10;0.10;;;15.10;99.90;;;;;;4986522;28;20683;-84
2022/07/07 01:45:23;;;;;;;0.10;0.10;;;15.10;99.90;;;;;;4991451;28;20193;-84
2022/07/07 01:47:49;;;;;;;0.10;0.10;;;15.10;99.90;;;;;;4971589;28;20669;-83
2022/07/07 01:50:14;;;;;;;0.10;0.10;;;15.20;99.90;;;;;;4988549;28;20940;-84
2022/07/07 01:52:40;;;;;;;0.10;0.10;;;15.20;99.90;;;;;;4990606;28;20207;-84
2022/07/07 01:55:06;;;;;;;0.10;0.10;;;15.20;99.90;;;;;;4990187;28;20276;-84
2022/07/07 01:57:32;;;;;;;0.10;0.10;;;15.20;99.90;;;;;;4971296;28;20186;-84
2022/07/07 01:59:57;;;;;;;0.10;0.10;;;15.20;99.90;;;;;;4973723;28;20451;-83
2022/07/07 02:02:23;;;;;;;0.10;0.10;;;15.20;99.90;;;;;;4970529;28;20189;-84
2022/07/07 02:04:49;;;;;;;0.10;0.10;;;15.20;99.90;;;;;;4989518;28;20304;-84
2022/07/07 02:07:14;;;;;;;0.10;0.10;;;15.20;99.90;;;;;;4971582;28;20235;-85
2022/07/07 02:09:40;;;;;;;0.10;0.10;;;15.20;99.90;;;;;;4992218;28;20231;-85
2022/07/07 02:12:06;;;;;;;0.10;0.10;;;15.20;99.90;;;;;;4988521;28;20193;-85
2022/07/07 02:14:31;;;;;;;0.10;0.10;;;15.30;99.90;;;;;;4986939;28;20297;-85
2022/07/07 02:16:57;;;;;;;0.10;0.10;;;15.30;99.90;;;;;;4987926;28;20538;-85
2022/07/07 02:19:23;;;;;;;0.10;0.10;;;15.30;99.90;;;;;;4972047;28;20192;-84
2022/07/07 02:21:48;;;;;;;0.10;0.10;;;15.30;99.90;;;;;;4992873;28;20272;-85
2022/07/07 02:24:14;;;;;;;0.10;0.10;;;15.30;99.90;;;;;;4974267;28;20726;-87
2022/07/07 02:26:39;;;;;;;0.10;0.10;;;15.30;99.90;;;;;;4988481;28;20275;-86
2022/07/07 02:29:05;;;;;;;0.10;0.10;;;15.30;99.90;;;;;;4988200;28;20224;-85
2022/07/07 02:31:31;;;;;;;0.10;0.10;;;15.30;99.90;;;;;;4989469;28;20198;-85
2022/07/07 02:33:57;;;;;;;0.10;0.10;;;15.40;99.90;;;;;;4986973;28;20284;-86
2022/07/07 02:36:22;;;;;;;0.10;0.10;;;15.30;99.90;;;;;;4971627;28;20566;-87
2022/07/07 02:38:50;;;;;;;0.10;0.10;;;15.30;99.90;;;;;;4974578;28;20189;-86
2022/07/07 02:41:16;;;;;;;0.10;0.10;;;15.30;99.90;;;;;;4986838;28;20193;-86
2022/07/07 02:43:41;;;;;;;0.10;0.10;;;15.30;99.90;;;;;;4988459;28;20829;-86
2022/07/07 02:46:07;;;;;;;0.10;0.10;;;15.30;99.90;;;;;;4984030;28;20221;-86
2022/07/07 02:48:32;;;;;;;0.10;0.10;;;15.30;99.90;;;;;;4988875;28;20248;-86
2022/07/07 02:50:58;;;;;;;0.10;0.10;;;15.30;99.90;;;;;;4987852;28;20200;-86
2022/07/07 02:53:24;;;;;;;0.10;0.10;;;15.30;99.90;;;;;;4965472;28;20194;-86
2022/07/07 02:55:49;;;;;;;0.10;0.10;;;15.30;99.90;;;;;;4989957;28;20196;-86
2022/07/07 02:58:19;;;;;;;0.10;0.10;;;15.30;99.90;;;;;;4981577;28;20366;-86
2022/07/07 03:00:45;;;;;;;0.10;0.10;;;15.30;99.90;;;;;;4989013;28;20267;-86
2022/07/07 03:03:11;;;;;;;0.10;0.10;;;15.30;99.90;;;;;;4992013;28;20484;-85
2022/07/07 03:05:37;;;;;;;0.10;0.10;;;15.30;99.90;;;;;;4985397;28;20484;-85
2022/07/07 03:08:03;;;;;;;0.10;0.10;;;15.30;99.90;;;;;;4991561;28;20200;-85
2022/07/07 03:10:28;;;;;;;0.10;0.10;;;15.30;99.90;;;;;;4989974;28;20506;-87
2022/07/07 03:12:54;;;;;;;0.10;0.10;;;15.30;99.90;;;;;;4989677;28;20788;-85
2022/07/07 03:15:19;;;;;;;0.20;0.20;;;15.30;99.90;;;;;;4991149;28;20201;-85
2022/07/07 03:17:47;;;;;;;0.10;0.10;;;15.30;99.90;;;;;;4989959;28;20320;-85
2022/07/07 03:20:14;;;;;;;0.10;0.10;;;15.30;99.90;;;;;;4989583;28;20199;-86
2022/07/07 03:22:41;;;;;;;0.10;0.10;;;15.20;99.90;;;;;;4988352;28;20486;-86
2022/07/07 03:25:08;;;;;;;0.10;0.10;;;15.20;99.90;;;;;;4988572;28;20732;-87
2022/07/07 03:27:34;;;;;;;0.10;0.10;;;15.20;99.90;;;;;;4991454;28;20444;-86
2022/07/07 03:30:00;;;;;;;0.10;0.10;;;15.20;99.90;;;;;;4988695;28;20498;-86
2022/07/07 03:32:26;;;;;;;0.10;0.10;;;15.20;99.90;;;;;;4969902;28;20434;-87
2022/07/07 03:34:51;;;;;;;0.10;0.10;;;15.20;99.90;;;;;;4988025;28;20526;-86
2022/07/07 03:37:17;;;;;;;0.10;0.10;;;15.10;99.90;;;;;;4988023;28;20262;-86
2022/07/07 03:39:42;;;;;;;0.10;0.10;;;15.20;99.90;;;;;;4988285;28;20216;-87
2022/07/07 03:42:08;;;;;;;0.10;0.10;;;15.10;99.90;;;;;;4981759;28;20217;-86
2022/07/07 03:44:34;;;;;;;0.10;0.10;;;15.20;99.90;;;;;;4991012;28;20229;-87
2022/07/07 03:46:59;;;;;;;0.10;0.10;;;15.10;99.90;;;;;;4989157;28;20562;-86
2022/07/07 03:49:25;;;;;;;0.10;0.10;;;15.20;99.90;;;;;;4986590;28;20193;-88
2022/07/07 03:51:50;;;;;;;0.10;0.10;;;15.20;99.90;;;;;;4989234;28;20272;-87
2022/07/07 03:54:16;;;;;;;0.10;0.10;;;15.20;99.90;;;;;;4991567;28;20255;-88
2022/07/07 03:56:42;;;;;;;0.10;0.10;;;15.20;99.90;;;;;;4987465;28;20208;-87
2022/07/07 03:59:07;;;;;;;0.10;0.10;;;15.20;99.90;;;;;;4969580;28;20213;-87
2022/07/07 04:01:33;;;;;;;0.10;0.10;;;15.30;99.90;;;;;;4984054;28;20454;-87
2022/07/07 04:03:59;;;;;;;0.10;0.10;;;15.20;99.90;;;;;;4988736;28;20213;-87
2022/07/07 04:06:24;;;;;;;0.10;0.10;;;15.20;99.90;;;;;;4983721;28;20224;-87
2022/07/07 04:08:50;;;;;;;0.10;0.10;;;15.20;99.90;;;;;;4989824;28;20637;-86
2022/07/07 04:11:16;;;;;;;0.10;0.10;;;15.30;99.90;;;;;;4987860;28;20196;-86
2022/07/07 04:13:42;;;;;;;0.10;0.10;;;15.30;99.90;;;;;;4986379;28;20269;-87
2022/07/07 04:16:07;;;;;;;0.10;0.10;;;15.30;99.90;;;;;;4986717;28;20932;-87
2022/07/07 04:18:33;;;;;;;0.10;0.10;;;15.30;99.90;;;;;;4985956;28;20209;-87
2022/07/07 04:20:59;;;;;;;0.10;0.10;;;15.30;99.90;;;;;;4988441;28;20645;-86
2022/07/07 04:23:24;;;;;;;0.10;0.10;;;15.30;99.90;;;;;;4987025;28;20272;-87
2022/07/07 04:25:50;;;;;;;0.10;0.10;;;15.40;99.90;;;;;;4985367;28;20267;-86
2022/07/07 04:28:15;;;;;;;0.10;0.10;;;15.40;99.90;;;;;;4985987;28;20196;-87
2022/07/07 04:30:41;;;;;;;0.10;0.10;;;15.40;99.90;;;;;;4968693;28;20562;-87
2022/07/07 04:33:06;;;;;;;0.10;0.10;;;15.30;99.90;;;;;;4989407;28;22285;-88
2022/07/07 04:35:32;;;;;;;0.10;0.10;;;15.40;99.90;;;;;;4989776;28;20193;-87
2022/07/07 04:37:57;;;;;;;0.10;0.10;;;15.40;99.90;;;;;;4990185;28;20197;-88
2022/07/07 04:40:23;;;;;;;0.10;0.10;;;15.40;99.90;;;;;;4988449;28;20279;-86
2022/07/07 04:42:49;;;;;;;0.10;0.10;;;15.30;99.90;;;;;;4994229;28;20212;-86
2022/07/07 04:45:14;;;;;;;0.10;0.10;;;15.30;99.90;;;;;;4964915;28;20562;-87
2022/07/07 04:47:41;;;;;;;0.10;0.10;;;15.40;99.90;;;;;;4988469;28;20200;-87
2022/07/07 04:50:12;;;;;;;0.10;0.10;;;15.50;99.90;;;;;;4988346;28;20189;-87
2022/07/07 04:52:38;;;;;;;0.10;0.10;;;15.50;99.90;;;;;;4991030;28;20417;-88
2022/07/07 04:55:05;;;;;;;0.20;0.20;;;15.50;99.90;;;;;;4985023;28;20814;-86
2022/07/07 04:57:31;;;;;;;0.20;0.20;;;15.50;99.90;;;;;;4990000;28;20951;-86
2022/07/07 04:59:56;;;;;;;0.10;0.10;;;15.50;99.90;;;;;;4987351;28;20519;-86
2022/07/07 05:02:22;;;;;;;0.10;0.10;;;15.60;99.90;;;;;;4980571;28;20457;-86
2022/07/07 05:04:49;;;;;;;0.10;0.10;;;15.70;99.90;;;;;;4983622;28;20687;-87
2022/07/07 05:07:15;;;;;;;0.10;0.10;;;15.70;99.90;;;;;;4982927;28;20188;-87
2022/07/07 05:09:40;;;;;;;0.10;0.10;;;15.80;99.90;;;;;;4967684;28;20921;-86
2022/07/07 05:12:06;;;;;;;0.10;0.10;;;15.80;99.90;;;;;;4967783;28;20484;-86
2022/07/07 05:14:32;;;;;;;0.10;0.10;;;16.00;99.90;;;;;;4971873;28;20189;-86
2022/07/07 05:16:58;;;;;;;0.10;0.10;;;15.90;99.90;;;;;;4990672;28;20444;-87
2022/07/07 05:19:24;;;;;;;0.10;0.10;;;16.00;99.90;;;;;;4991631;28;20326;-86
2022/07/07 05:21:49;;;;;;;0.00;0.00;;;16.10;99.90;;;;;;4970958;28;21148;-88
2022/07/07 05:24:15;;;;;;;0.10;0.10;;;16.10;99.90;;;;;;4988229;28;20487;-87
2022/07/07 05:26:41;;;;;;;0.10;0.10;;;16.10;99.90;;;;;;4985280;28;20181;-87
2022/07/07 05:29:06;;;;;;;0.10;0.10;;;16.00;99.90;;;;;;4993364;28;20826;-87
2022/07/07 05:31:32;;;;;;;0.10;0.10;;;16.10;99.90;;;;;;4990896;28;20189;-86
2022/07/07 05:33:58;;;;;;;0.10;0.10;;;16.10;99.90;;;;;;4991210;28;20201;-88
2022/07/07 05:36:23;;;;;;;0.10;0.10;;;16.10;99.90;;;;;;4991772;28;20522;-88
2022/07/07 05:38:50;;;;;;;0.10;0.10;;;16.00;99.90;;;;;;4989115;28;20189;-87
2022/07/07 05:41:16;;;;;;;0.10;0.10;;;16.10;99.90;;;;;;4991148;28;20192;-88
2022/07/07 05:43:42;;;;;;;0.10;0.10;;;16.20;99.90;;;;;;4989482;28;20726;-88
2022/07/07 05:46:07;;;;;;;0.10;0.10;;;16.20;99.90;;;;;;4972123;28;20193;-87
2022/07/07 05:48:33;;;;;;;0.10;0.10;;;16.20;99.90;;;;;;4988421;28;20189;-87
2022/07/07 05:50:58;;;;;;;0.10;0.10;;;16.20;99.90;;;;;;4991669;28;20608;-88
2022/07/07 05:53:23;;;;;;;0.10;0.10;;;16.20;99.90;;;;;;4992683;28;20197;-87
2022/07/07 05:55:49;;;;;;;0.10;0.10;;;16.20;99.90;;;;;;4991127;28;20983;-88
2022/07/07 05:58:15;;;;;;;0.10;0.10;;;16.30;99.90;;;;;;4988837;28;20220;-86
2022/07/07 06:00:41;;;;;;;0.10;0.10;;;16.40;99.90;;;;;;4989328;28;20184;-85
2022/07/07 06:03:06;;;;;;;0.10;0.10;;;16.50;99.90;;;;;;4988071;28;20214;-86
2022/07/07 06:05:32;;;;;;;0.10;0.10;;;16.50;99.90;;;;;;4990747;28;20729;-86
2022/07/07 06:07:57;;;;;;;0.10;0.10;;;16.40;99.90;;;;;;4993108;28;20200;-86
2022/07/07 06:10:23;;;;;;;0.10;0.10;;;16.30;99.90;;;;;;4992133;28;20189;-85
2022/07/07 06:12:49;;;;;;;0.10;0.10;;;16.10;99.90;;;;;;4993080;28;20692;-86
2022/07/07 06:15:17;;;;;;;0.10;0.10;;;16.20;99.90;;;;;;4970042;28;20189;-87
2022/07/07 06:17:44;;;;;;;0.10;0.10;;;16.20;99.90;;;;;;4983319;28;20192;-86
2022/07/07 06:20:10;;;;;;;0.10;0.10;;;16.30;99.90;;;;;;4987220;28;20903;-86
2022/07/07 06:22:35;;;;;;;0.10;0.10;;;16.40;99.90;;;;;;4974051;28;20494;-84
2022/07/07 06:25:01;;;;;;;0.10;0.10;;;16.50;99.90;;;;;;4965850;28;20696;-88
2022/07/07 06:27:26;;;;;;;0.10;0.10;;;16.70;99.90;;;;;;4994725;28;20665;-87
2022/07/07 06:29:55;;;;;;;0.10;0.10;;;16.90;99.90;;;;;;4990040;28;20687;-88
2022/07/07 06:32:21;;;;;;;0.10;0.10;;;16.90;99.90;;;;;;4973087;28;20185;-88
2022/07/07 06:34:47;;;;;;;0.10;0.10;;;17.00;99.90;;;;;;4965387;28;21594;-88
2022/07/07 06:37:12;;;;;;;0.10;0.10;;;17.20;99.90;;;;;;4982767;28;20445;-89
2022/07/07 06:39:38;;;;;;;0.10;0.10;;;17.40;99.90;;;;;;4963833;28;20225;-87
2022/07/07 06:42:04;;;;;;;0.10;0.10;;;17.40;99.90;;;;;;4988428;28;20200;-88
2022/07/07 06:44:31;;;;;;;0.10;0.10;;;17.50;99.90;;;;;;4985850;28;20228;-87
2022/07/07 06:47:00;;;;;;;0.10;0.10;;;17.60;99.90;;;;;;4980953;28;20454;-81
2022/07/07 06:49:27;;;;;;;0.10;0.10;;;17.70;99.90;;;;;;4957809;28;20535;-81
2022/07/07 06:51:52;;;;;;;0.10;0.10;;;17.50;99.90;;;;;;4988765;28;20436;-89
2022/07/07 06:54:18;;;;;;;0.10;0.00;;;17.30;99.90;;;;;;4988022;28;20540;-90
2022/07/07 06:56:43;;;;;;;0.10;0.10;;;17.00;99.90;;;;;;4988784;28;20557;-90
2022/07/07 06:59:09;;;;;;;0.10;0.10;;;16.80;99.90;;;;;;4985189;28;20585;-82
2022/07/07 07:01:34;;;;;;;0.10;0.10;;;16.70;99.90;;;;;;4982932;28;20220;-83
2022/07/07 07:04:00;;;;;;;0.10;0.10;;;16.50;99.90;;;;;;4986845;28;20594;-84
2022/07/07 07:06:28;;;;;;;0.10;0.10;;;16.50;99.90;;;;;;4981689;28;20272;-84
2022/07/07 07:08:54;;;;;;;0.10;0.10;;;16.50;99.90;;;;;;4984980;28;20213;-84
2022/07/07 07:11:19;;;;;;;0.10;0.10;;;16.50;99.90;;;;;;4985090;28;20480;-83
2022/07/07 07:13:47;;;;;;;0.10;0.10;;;16.60;99.90;;;;;;4984546;28;20912;-83
2022/07/07 07:16:16;;;;;;;0.10;0.10;;;16.60;99.90;;;;;;4972994;28;20197;-80
2022/07/07 07:18:42;;;;;;;0.10;0.10;;;16.80;99.90;;;;;;4987685;28;20437;-82
2022/07/07 07:21:08;;;;;;;0.10;0.10;;;16.80;99.90;;;;;;4985274;28;20463;-85
2022/07/07 07:23:33;;;;;;;0.10;0.10;;;17.10;99.90;;;;;;4985144;28;20283;-81
2022/07/07 07:25:59;;;;;;;0.10;0.10;;;17.20;99.90;;;;;;4985527;28;20181;-81
2022/07/07 07:28:24;;;;;;;0.10;0.10;;;17.20;99.90;;;;;;4984258;28;20732;-81
2022/07/07 07:30:50;;;;;;;0.10;0.10;;;17.00;99.90;;;;;;4984601;28;20195;-81
2022/07/07 07:33:16;;;;;;;0.10;0.10;;;16.80;99.90;;;;;;4985528;28;20221;-82
2022/07/07 07:35:42;;;;;;;0.10;0.10;;;16.80;99.90;;;;;;4985478;28;20276;-81
2022/07/07 07:38:07;;;;;;;0.10;0.10;;;16.90;99.90;;;;;;4982877;28;20956;-81
2022/07/07 07:40:33;;;;;;;0.10;0.10;;;17.00;99.90;;;;;;4988305;28;20181;-81
2022/07/07 07:42:59;;;;;;;0.10;0.10;;;17.20;99.90;;;;;;4987202;28;20547;-81
2022/07/07 07:45:24;;;;;;;0.10;0.10;;;17.20;99.90;;;;;;4982570;28;20641;-81
2022/07/07 07:47:50;;;;;;;0.10;0.10;;;17.40;99.90;;;;;;4986730;28;20606;-81
2022/07/07 07:50:20;;;;;;;0.10;0.10;;;17.40;99.90;;;;;;4983950;28;20195;-81
2022/07/07 07:52:48;;;;;;;0.10;0.10;;;17.30;99.90;;;;;;4984855;28;20189;-81
2022/07/07 07:55:17;;;;;;;0.10;0.10;;;17.30;99.90;;;;;;4984875;28;20484;-81
2022/07/07 07:57:43;;;;;;;0.10;0.10;;;17.20;99.90;;;;;;4985991;28;20432;-81
2022/07/07 08:00:11;;;;;;;0.10;0.10;;;17.10;99.90;;;;;;4985409;28;20448;-81
2022/07/07 08:02:37;;;;;;;0.10;0.10;;;16.90;99.90;;;;;;4983192;28;20448;-81
2022/07/07 08:05:03;;;;;;;0.10;0.10;;;16.90;99.90;;;;;;4972490;28;20575;-81
2022/07/07 08:07:29;;;;;;;0.10;0.10;;;16.90;99.90;;;;;;4988531;28;20558;-81
2022/07/07 08:09:54;;;;;;;0.10;0.10;;;16.80;99.90;;;;;;4984878;28;20470;-82
2022/07/07 08:12:20;;;;;;;0.10;0.10;;;16.80;99.90;;;;;;4985215;28;20372;-82
2022/07/07 08:14:45;;;;;;;0.10;0.10;;;16.60;99.90;;;;;;4985891;28;20185;-84
2022/07/07 08:17:11;;;;;;;0.10;0.10;;;16.40;99.90;;;;;;4986728;28;20177;-79
2022/07/07 08:19:37;;;;;;;0.10;0.10;;;16.30;99.90;;;;;;4987048;28;20193;-79
2022/07/07 08:22:03;;;;;;;0.10;0.10;;;16.30;99.90;;;;;;4989206;28;20243;-80
2022/07/07 08:24:28;;;;;;;0.10;0.10;;;16.30;99.90;;;;;;4987035;28;20353;-80
2022/07/07 08:26:54;;;;;;;0.10;0.10;;;16.20;99.90;;;;;;4985847;28;20583;-79
2022/07/07 08:29:20;;;;;;;0.10;0.10;;;16.50;99.90;;;;;;4985090;28;20275;-79
2022/07/07 08:31:45;;;;;;;0.10;0.10;;;16.90;99.90;;;;;;4982293;28;20189;-83
2022/07/07 08:34:11;;;;;;;0.10;0.10;;;17.10;99.90;;;;;;4983887;28;20185;-95
2022/07/07 08:36:37;;;;;;;0.10;0.10;;;17.40;99.90;;;;;;4990649;28;20195;-92
2022/07/07 08:39:02;;;;;;;0.10;0.10;;;17.90;99.90;;;;;;4983159;28;20193;-83
2022/07/07 08:41:28;;;;;;;0.10;0.10;;;17.90;99.90;;;;;;4971525;28;20280;-83
2022/07/07 08:43:55;;;;;;;0.10;0.10;;;17.90;99.90;;;;;;4990832;28;20201;-83
2022/07/07 08:46:21;;;;;;;0.10;0.10;;;17.70;99.90;;;;;;4972592;28;20563;-83
2022/07/07 08:48:46;;;;;;;0.10;0.10;;;17.50;99.90;;;;;;4988041;28;20455;-83
2022/07/07 08:51:13;;;;;;;0.10;0.10;;;17.30;99.90;;;;;;4985840;28;20661;-84
2022/07/07 08:53:39;;;;;;;0.10;0.10;;;17.20;99.90;;;;;;4988877;28;20255;-84
2022/07/07 08:56:07;;;;;;;0.10;0.10;;;17.10;99.90;;;;;;4986754;28;20448;-83
2022/07/07 08:58:36;;;;;;;0.10;0.10;;;17.00;99.90;;;;;;4984850;28;20228;-83
2022/07/07 09:01:06;;;;;;;0.10;0.10;;;17.00;99.90;;;;;;4965996;28;20444;-83
2022/07/07 09:03:33;;;;;;;0.10;0.10;;;16.90;99.90;;;;;;4986331;28;20447;-84
2022/07/07 09:05:59;;;;;;;0.10;0.10;;;16.90;99.90;;;;;;4984253;28;20463;-84
2022/07/07 09:08:26;;;;;;;0.10;0.10;;;17.00;99.90;;;;;;4969356;28;20444;-84
2022/07/07 09:10:53;;;;;;;0.10;0.10;;;17.20;99.90;;;;;;4983859;28;20475;-84
2022/07/07 09:13:31;;;;;;;0.10;0.10;;;17.10;99.90;;;;;;4973769;28;20440;-84
2022/07/07 09:15:58;;;;;;;0.10;0.10;;;17.30;99.90;;;;;;4982252;28;20690;-84
2022/07/07 09:18:29;;;;;;;0.10;0.10;;;17.40;99.90;;;;;;4986093;28;20531;-83
2022/07/07 09:20:55;;;;;;;0.10;0.10;;;17.40;99.90;;;;;;4986250;28;20448;-83
2022/07/07 09:23:20;;;;;;;0.10;0.10;;;17.30;99.90;;;;;;4952752;28;20527;-84
2022/07/07 09:25:46;;;;;;;0.10;0.10;;;17.40;99.90;;;;;;4950314;28;20481;-83
2022/07/07 09:28:11;;;;;;;0.10;0.10;;;17.30;99.90;;;;;;4963929;28;20197;-83
2022/07/07 09:30:43;;;;;;;0.10;0.10;;;17.60;99.90;;;;;;4965876;28;20202;-83
2022/07/07 09:33:14;;;;;;;0.10;0.10;;;18.30;99.90;;;;;;4969980;28;20189;-82
2022/07/07 09:38:31;;;;;;;0.10;0.10;;;19.70;99.90;;;;;;4958494;28;20455;-82
2022/07/07 09:41:03;;;;;;;0.10;0.10;;;19.40;99.90;;;;;;4965669;28;20449;-82
2022/07/07 09:43:32;;;;;;;0.10;0.10;;;19.80;99.90;;;;;;4968829;28;20453;-83
2022/07/07 09:46:10;;;;;;;0.10;0.00;;;20.40;99.90;;;;;;4968575;28;20574;-82
2022/07/07 09:48:37;;;;;;;0.10;0.10;;;20.10;99.90;;;;;;4966125;28;20460;-83
2022/07/07 09:51:17;;;;;;;0.10;0.07;;;19.20;99.90;;;;;;4969505;28;20461;-83
2022/07/07 09:54:12;;;;;;;0.10;0.10;;;18.70;99.90;;;;;;4965936;28;20562;-83
2022/07/07 09:56:42;;;;;;;0.10;0.10;;;18.50;99.90;;;;;;4966912;28;20437;-84
2022/07/07 09:59:13;;;;;;;0.10;0.10;;;18.50;99.90;;;;;;4947800;28;20875;-83
2022/07/07 10:01:41;;;;;;;0.10;0.10;;;18.50;99.90;;;;;;4948403;28;20880;-84
2022/07/07 10:04:17;;;;;;;0.10;0.10;;;18.50;99.90;;;;;;4969312;28;20553;-83
2022/07/07 10:06:43;;;;;;;0.10;0.10;;;18.40;99.90;;;;;;4967708;28;20515;-84
2022/07/07 10:09:37;;;;;;;0.10;0.10;;;18.10;99.90;;;;;;4954139;28;20488;-82
2022/07/07 10:12:03;;;;;;;0.10;0.10;;;17.90;99.90;;;;;;4943446;28;20441;-83
2022/07/07 10:14:35;;;;;;;0.10;0.10;;;18.10;99.90;;;;;;4969676;28;20459;-84
2022/07/07 10:17:01;;;;;;;0.10;0.10;;;18.10;99.90;;;;;;4955153;28;20451;-83
2022/07/07 10:19:27;;;;;;;0.10;0.10;;;18.50;99.90;;;;;;4967276;28;20456;-83
2022/07/07 10:21:55;;;;;;;0.10;0.10;;;19.20;99.90;;;;;;4947318;28;22004;-81
2022/07/07 10:24:23;;;;;;;0.10;0.00;;;20.50;99.90;;;;;;4966820;28;22475;-82
2022/07/07 10:26:49;;;;;;;0.10;0.10;;;20.40;99.90;;;;;;4970439;28;20545;-82
2022/07/07 10:29:15;;;;;;;0.10;0.10;;;20.70;99.90;;;;;;4967922;28;20485;-82
2022/07/07 10:31:49;;;;;;;0.10;0.00;;;21.20;99.90;;;;;;4967415;28;20893;-81
2022/07/07 10:34:14;;;;;;;0.10;0.00;;;21.20;99.90;;;;;;4963015;28;20209;-81
2022/07/07 10:36:49;;;;;;;0.10;0.00;;;20.80;99.90;;;;;;4971161;28;20791;-82
2022/07/07 10:39:15;;;;;;;0.10;0.00;;;20.20;99.90;;;;;;4965413;28;20193;-81
2022/07/07 10:41:50;;;;;;;0.10;0.00;;;19.50;99.90;;;;;;4966390;28;20456;-81
2022/07/07 10:44:19;;;;;;;0.10;0.10;;;19.10;99.90;;;;;;4969423;28;21010;-80
2022/07/07 10:47:11;;;;;;;0.10;0.00;;;18.80;99.90;;;;;;4945538;28;20793;-79
2022/07/07 10:49:39;;;;;;;0.10;0.10;;;18.40;99.90;;;;;;4964114;28;20445;-81
2022/07/07 10:52:09;;;;;;;0.10;0.10;;;18.10;99.90;;;;;;4970354;28;20444;-81
2022/07/07 10:54:38;;;;;;;0.10;0.10;;;17.80;99.90;;;;;;4965547;28;20453;-80
2022/07/07 10:57:05;;;;;;;0.10;0.10;;;17.70;99.90;;;;;;4967655;28;20854;-81
2022/07/07 10:59:58;;;;;;;0.10;0.10;;;17.50;99.90;;;;;;4967190;28;20453;-80
2022/07/07 11:02:33;;;;;;;0.10;0.10;;;17.40;99.90;;;;;;4964925;28;20533;-80
2022/07/07 11:05:01;;;;;;;0.10;0.10;;;17.30;99.90;;;;;;4948512;28;20480;-80
2022/07/07 11:07:28;;;;;;;0.10;0.10;;;17.50;99.90;;;;;;4960679;28;20809;-80
2022/07/07 11:10:10;;;;;;;0.10;0.10;;;17.50;99.90;;;;;;4963294;28;20540;-79
2022/07/07 11:12:39;;;;;;;0.10;0.10;;;17.50;99.90;;;;;;4958158;28;20937;-79
2022/07/07 11:15:20;;;;;;;0.10;0.10;;;17.70;99.90;;;;;;4958272;28;20457;-79
2022/07/07 11:17:55;;;;;;;0.10;0.10;;;17.70;99.90;;;;;;4961305;28;20437;-79
2022/07/07 11:20:23;;;;;;;0.10;0.10;;;17.70;99.90;;;;;;4949081;28;20841;-79
2022/07/07 11:22:54;;;;;;;0.10;0.10;;;17.80;99.90;;;;;;4983986;28;20954;-79
2022/07/07 11:25:22;;;;;;;0.10;0.10;;;18.70;99.90;;;;;;4970306;28;20515;-80
2022/07/07 11:27:49;;;;;;;0.10;0.10;;;19.40;99.90;;;;;;4987946;28;20441;-80
2022/07/07 11:30:16;;;;;;;0.10;0.00;;;19.70;99.90;;;;;;4986977;28;21555;-79
2022/07/07 11:32:43;;;;;;;0.10;0.00;;;19.60;99.90;;;;;;4993604;28;20448;-79
2022/07/07 11:35:11;;;;;;;0.10;0.10;;;19.30;99.90;;;;;;4990124;28;20510;-80
2022/07/07 11:37:43;;;;;;;0.10;0.00;;;19.40;99.90;;;;;;4979954;28;20444;-80
2022/07/07 11:40:14;;;;;;;0.10;0.10;;;19.30;99.90;;;;;;4979218;28;20456;-79
2022/07/07 11:42:43;;;;;;;0.10;0.10;;;18.40;99.90;;;;;;4963937;28;20459;-81
2022/07/07 11:45:29;;;;;;;0.10;0.10;;;18.40;99.90;;;;;;4965144;28;20484;-79
2022/07/07 11:48:00;;;;;;;0.10;0.10;;;18.20;99.90;;;;;;4987009;28;20523;-80
2022/07/07 11:50:28;;;;;;;0.10;0.10;;;18.80;99.90;;;;;;4991106;28;20870;-80
2022/07/07 11:52:55;;;;;;;0.10;0.10;;;19.00;99.90;;;;;;4987195;28;20491;-79
2022/07/07 11:55:21;;;;;;;0.10;0.10;;;19.00;99.90;;;;;;4986699;28;20454;-81
2022/07/07 11:57:56;;;;;;;0.10;0.10;;;19.20;99.90;;;;;;4992701;28;20430;-80
2022/07/07 12:00:29;;;;;;;0.10;0.10;;;19.30;99.90;;;;;;4988380;28;20955;-80
2022/07/07 12:02:57;;;;;;;0.10;0.10;;;19.30;99.90;;;;;;4991095;28;20440;-80
2022/07/07 12:05:31;;;;;;;0.10;0.10;;;19.10;99.90;;;;;;4988215;28;20492;-81
2022/07/07 12:08:07;;;;;;;0.10;0.10;;;19.10;99.90;;;;;;4989152;28;20449;-80
2022/07/07 12:10:41;;;;;;;0.10;0.00;;;19.10;99.90;;;;;;4984696;28;20555;-80
2022/07/07 12:13:08;;;;;;;0.10;0.00;;;19.30;99.90;;;;;;4978995;28;20444;-80
2022/07/07 12:15:38;;;;;;;0.10;0.10;;;19.50;99.90;;;;;;4984076;28;20824;-80
2022/07/07 12:18:05;;;;;;;0.10;0.10;;;19.50;99.90;;;;;;4988721;28;20483;-80
2022/07/07 12:20:31;;;;;;;0.10;0.10;;;19.40;99.90;;;;;;4983394;28;20444;-81
2022/07/07 12:22:59;;;;;;;0.10;0.10;;;19.00;99.90;;;;;;4975830;28;20540;-81
2022/07/07 12:25:26;;;;;;;0.10;0.10;;;18.30;99.90;;;;;;4979197;28;20479;-80
2022/07/07 12:27:57;;;;;;;0.10;0.10;;;18.60;99.90;;;;;;4983125;28;20515;-81
2022/07/07 12:30:27;;;;;;;0.10;0.10;;;18.60;99.90;;;;;;4965556;28;21052;-80
2022/07/07 12:32:53;;;;;;;0.10;0.10;;;18.30;99.90;;;;;;4990116;28;20535;-82
2022/07/07 12:35:37;;;;;;;0.10;0.10;;;18.10;99.90;;;;;;4986342;28;20562;-82
2022/07/07 12:38:07;;;;;;;0.10;0.10;;;18.30;99.90;;;;;;4984197;28;20189;-81
2022/07/07 12:40:36;;;;;;;0.10;0.10;;;18.60;99.90;;;;;;4971804;28;20452;-81
2022/07/07 12:43:11;;;;;;;0.10;0.10;;;18.80;99.90;;;;;;4969712;28;20504;-80
2022/07/07 12:45:38;;;;;;;0.10;0.10;;;18.90;99.90;;;;;;4981562;28;20517;-82
2022/07/07 12:48:14;;;;;;;0.10;0.10;;;19.00;99.90;;;;;;4986499;28;20483;-81
2022/07/07 12:50:39;;;;;;;0.10;0.10;;;19.00;99.90;;;;;;4969977;28;20447;-82